Time;durP1;ratioP1;P1;durP2;ratioP2;P2;SDS_P1;SDS_P2;PMS_P1;PMS_P2;Temp;Humidity;BMP_temperature;BMP_pressure;BME280_temperature;BME280_humidity;BME280_pressure;Samples;Min_cycle;Max_cycle;Signal;HPM_P1;HPM_P2
2022/01/09 00:00:52;;;;;;;28.92;26.02;;;;;;;;;;5035207;28;20051;-75
2022/01/09 00:03:19;;;;;;;31.67;27.67;;;;;;;;;;5048253;28;20075;-76
2022/01/09 00:05:47;;;;;;;30.92;25.50;;;;;;;;;;5076622;28;20057;-76
2022/01/09 00:08:14;;;;;;;31.08;25.88;;;;;;;;;;5059861;28;20072;-75
2022/01/09 00:10:46;;;;;;;31.20;28.05;;;;;;;;;;5079090;28;20037;-75
2022/01/09 00:13:14;;;;;;;33.20;29.73;;;;;;;;;;5062343;28;20048;-75
2022/01/09 00:15:43;;;;;;;36.53;30.27;;;;;;;;;;5060640;28;20041;-75
2022/01/09 00:18:10;;;;;;;34.17;30.08;;;;;;;;;;5063763;28;20144;-76
2022/01/09 00:20:37;;;;;;;36.22;30.83;;;;;;;;;;5019463;28;20157;-75
2022/01/09 00:23:04;;;;;;;37.38;32.33;;;;;;;;;;5034942;28;20064;-75
2022/01/09 00:25:31;;;;;;;33.33;29.42;;;;;;;;;;5035110;28;20073;-75
2022/01/09 00:27:57;;;;;;;34.17;30.45;;;;;;;;;;5052927;28;20045;-75
2022/01/09 00:30:26;;;;;;;37.75;31.63;;;;;;;;;;5035412;28;20064;-76
2022/01/09 00:32:53;;;;;;;39.55;32.83;;;;;;;;;;5035180;28;20045;-75
2022/01/09 00:35:21;;;;;;;37.47;32.00;;;;;;;;;;5019071;28;20048;-76
2022/01/09 00:37:48;;;;;;;34.17;30.55;;;;;;;;;;5046638;28;20405;-75
2022/01/09 00:40:16;;;;;;;40.45;31.75;;;;;;;;;;5053915;28;20688;-76
2022/01/09 00:42:43;;;;;;;36.30;32.35;;;;;;;;;;5070888;28;20151;-75
2022/01/09 00:45:12;;;;;;;38.35;33.67;;;;;;;;;;5070668;28;20135;-75
2022/01/09 00:47:39;;;;;;;38.83;33.53;;;;;;;;;;5053778;28;20260;-75
2022/01/09 00:50:08;;;;;;;37.80;33.75;;;;;;;;;;5070731;28;20044;-76
2022/01/09 00:52:35;;;;;;;37.28;31.38;;;;;;;;;;5070735;28;20115;-75
2022/01/09 00:55:03;;;;;;;39.47;35.35;;;;;;;;;;5071467;28;20052;-75
2022/01/09 00:57:31;;;;;;;38.72;33.65;;;;;;;;;;5070241;28;20087;-75
2022/01/09 00:59:58;;;;;;;38.53;32.28;;;;;;;;;;5071734;28;20041;-75
2022/01/09 01:02:25;;;;;;;37.72;33.25;;;;;;;;;;5053647;28;20128;-76
2022/01/09 01:04:52;;;;;;;36.63;32.17;;;;;;;;;;5070623;28;20053;-75
2022/01/09 01:07:20;;;;;;;41.58;33.58;;;;;;;;;;5054225;28;20439;-75
2022/01/09 01:09:47;;;;;;;42.97;33.17;;;;;;;;;;5072126;28;20098;-75
2022/01/09 01:12:14;;;;;;;37.65;33.63;;;;;;;;;;5071465;28;20048;-73
2022/01/09 01:14:41;;;;;;;42.22;35.10;;;;;;;;;;5053622;28;20044;-75
2022/01/09 01:17:09;;;;;;;38.00;33.70;;;;;;;;;;5071555;28;20058;-75
2022/01/09 01:19:36;;;;;;;38.60;34.40;;;;;;;;;;5052226;28;20040;-74
2022/01/09 01:22:23;;;;;;;43.13;37.53;;;;;;;;;;5056714;28;20040;-76
2022/01/09 01:24:52;;;;;;;36.85;33.05;;;;;;;;;;5033561;28;20457;-75
2022/01/09 01:27:19;;;;;;;37.60;32.95;;;;;;;;;;5051701;28;20056;-75
2022/01/09 01:29:46;;;;;;;38.38;34.05;;;;;;;;;;5051387;28;20053;-75
2022/01/09 01:32:13;;;;;;;37.35;32.75;;;;;;;;;;5051409;28;20041;-75
2022/01/09 01:34:40;;;;;;;37.08;33.08;;;;;;;;;;5051400;28;20508;-76
2022/01/09 01:37:07;;;;;;;36.08;31.77;;;;;;;;;;5051016;28;20049;-75
2022/01/09 01:39:34;;;;;;;38.60;33.80;;;;;;;;;;5051406;28;20049;-75
2022/01/09 01:42:01;;;;;;;37.53;33.45;;;;;;;;;;5033677;28;20053;-75
2022/01/09 01:44:58;;;;;;;38.15;34.00;;;;;;;;;;5033158;28;20049;-75
2022/01/09 01:47:25;;;;;;;38.15;32.80;;;;;;;;;;5024042;28;20065;-75
2022/01/09 01:49:52;;;;;;;39.13;33.42;;;;;;;;;;5071112;28;20049;-75
2022/01/09 01:52:25;;;;;;;37.70;33.72;;;;;;;;;;5071557;28;20120;-74
2022/01/09 01:54:53;;;;;;;39.67;33.03;;;;;;;;;;5053804;28;20517;-75
2022/01/09 01:57:20;;;;;;;39.42;34.63;;;;;;;;;;5058997;28;20044;-74
2022/01/09 01:59:47;;;;;;;37.53;33.33;;;;;;;;;;5052840;28;20132;-74
2022/01/09 02:02:14;;;;;;;40.75;33.85;;;;;;;;;;5071100;28;20126;-74
2022/01/09 02:04:41;;;;;;;38.92;33.05;;;;;;;;;;5053291;28;20055;-75
2022/01/09 02:07:08;;;;;;;38.88;33.10;;;;;;;;;;5053609;28;20127;-75
2022/01/09 02:09:36;;;;;;;39.17;34.03;;;;;;;;;;5053809;28;20076;-76
2022/01/09 02:12:04;;;;;;;40.05;32.78;;;;;;;;;;5071432;28;20074;-77
2022/01/09 02:14:37;;;;;;;38.05;32.90;;;;;;;;;;5053896;28;20051;-76
2022/01/09 02:17:05;;;;;;;38.37;33.00;;;;;;;;;;5054153;28;20053;-77
2022/01/09 02:19:32;;;;;;;39.45;32.88;;;;;;;;;;5071597;28;20072;-76
2022/01/09 02:21:59;;;;;;;38.63;34.15;;;;;;;;;;5070848;28;21056;-76
2022/01/09 02:24:26;;;;;;;41.38;33.78;;;;;;;;;;5071799;28;20147;-76
2022/01/09 02:26:53;;;;;;;39.53;33.15;;;;;;;;;;5053706;28;20081;-77
2022/01/09 02:29:20;;;;;;;38.08;33.97;;;;;;;;;;5053463;28;20036;-76
2022/01/09 02:31:47;;;;;;;40.10;35.05;;;;;;;;;;5053143;28;20056;-76
2022/01/09 02:34:14;;;;;;;40.85;31.73;;;;;;;;;;5069980;28;20053;-75
2022/01/09 02:36:41;;;;;;;41.38;35.75;;;;;;;;;;5052710;28;20531;-75
2022/01/09 02:39:08;;;;;;;37.88;32.88;;;;;;;;;;5070356;28;20037;-75
2022/01/09 02:41:35;;;;;;;39.55;32.63;;;;;;;;;;5052934;28;20059;-75
2022/01/09 02:44:10;;;;;;;41.30;36.58;;;;;;;;;;5070493;28;20048;-75
2022/01/09 02:46:56;;;;;;;41.38;35.33;;;;;;;;;;5069715;28;20056;-75
2022/01/09 02:49:26;;;;;;;37.38;33.28;;;;;;;;;;5055657;28;20481;-75
2022/01/09 02:51:53;;;;;;;38.30;34.22;;;;;;;;;;5053032;28;20520;-75
2022/01/09 02:57:06;;;;;;;36.58;32.72;;;;;;;;;;5058856;28;20075;-76
2022/01/09 02:59:33;;;;;;;39.00;33.42;;;;;;;;;;5040332;28;20508;-75
2022/01/09 03:02:00;;;;;;;39.53;34.40;;;;;;;;;;5055245;28;20494;-75
2022/01/09 03:04:27;;;;;;;38.03;33.97;;;;;;;;;;5050047;28;20048;-75
2022/01/09 03:06:54;;;;;;;39.63;34.78;;;;;;;;;;5056022;28;20413;-76
2022/01/09 03:09:21;;;;;;;38.40;34.38;;;;;;;;;;5073604;28;20056;-75
2022/01/09 03:11:49;;;;;;;40.50;34.85;;;;;;;;;;5056609;28;20052;-73
2022/01/09 03:14:16;;;;;;;39.53;30.83;;;;;;;;;;5073213;28;20083;-74
2022/01/09 03:16:43;;;;;;;38.72;32.67;;;;;;;;;;5056008;28;20072;-74
2022/01/09 03:19:10;;;;;;;40.22;34.35;;;;;;;;;;5055604;28;20056;-74
2022/01/09 03:21:37;;;;;;;37.70;33.60;;;;;;;;;;5055901;28;20032;-74
2022/01/09 03:24:04;;;;;;;43.72;32.88;;;;;;;;;;5055926;28;20052;-74
2022/01/09 03:26:31;;;;;;;39.25;34.97;;;;;;;;;;5055483;28;20135;-74
2022/01/09 03:28:58;;;;;;;40.65;33.15;;;;;;;;;;5055920;28;20045;-75
2022/01/09 03:31:25;;;;;;;40.63;32.28;;;;;;;;;;5051233;28;20094;-74
2022/01/09 03:33:54;;;;;;;38.17;34.00;;;;;;;;;;5073495;28;20061;-75
2022/01/09 03:36:21;;;;;;;44.40;36.10;;;;;;;;;;5073228;28;20048;-74
2022/01/09 03:38:48;;;;;;;38.78;34.60;;;;;;;;;;5038959;28;20044;-74
2022/01/09 03:41:15;;;;;;;39.45;35.25;;;;;;;;;;5055442;28;20052;-74
2022/01/09 03:43:42;;;;;;;43.47;36.25;;;;;;;;;;5055201;28;20063;-74
2022/01/09 03:46:09;;;;;;;41.88;36.25;;;;;;;;;;5044034;28;20053;-74
2022/01/09 03:48:36;;;;;;;45.40;38.85;;;;;;;;;;5073124;28;20056;-74
2022/01/09 03:51:04;;;;;;;48.40;38.88;;;;;;;;;;5073375;28;20057;-74
2022/01/09 03:53:31;;;;;;;45.13;38.70;;;;;;;;;;5072930;28;20051;-75
2022/01/09 03:55:58;;;;;;;52.95;40.50;;;;;;;;;;5072841;28;20044;-74
2022/01/09 03:58:25;;;;;;;48.83;35.00;;;;;;;;;;5071464;28;20056;-74
2022/01/09 04:00:52;;;;;;;38.78;34.58;;;;;;;;;;5072854;28;20048;-74
2022/01/09 04:03:20;;;;;;;40.55;33.30;;;;;;;;;;5072942;28;20123;-74
2022/01/09 04:05:47;;;;;;;38.40;34.20;;;;;;;;;;5071853;28;20534;-74
2022/01/09 04:08:14;;;;;;;39.25;31.63;;;;;;;;;;5072483;28;20049;-74
2022/01/09 04:10:42;;;;;;;36.47;31.50;;;;;;;;;;5054866;28;20048;-74
2022/01/09 04:13:13;;;;;;;38.50;31.98;;;;;;;;;;5072769;28;20062;-75
2022/01/09 04:15:46;;;;;;;38.03;32.20;;;;;;;;;;5044590;28;20497;-73
2022/01/09 04:18:17;;;;;;;41.78;33.47;;;;;;;;;;5072059;28;20049;-74
2022/01/09 04:20:44;;;;;;;39.78;32.85;;;;;;;;;;5055168;28;20043;-75
2022/01/09 04:23:12;;;;;;;45.05;35.78;;;;;;;;;;5051135;28;20047;-74
2022/01/09 04:25:40;;;;;;;48.85;38.85;;;;;;;;;;5052611;28;20456;-75
2022/01/09 04:28:07;;;;;;;53.72;39.75;;;;;;;;;;5018169;28;20497;-75
2022/01/09 04:30:34;;;;;;;50.25;39.70;;;;;;;;;;5052713;28;20124;-75
2022/01/09 04:33:01;;;;;;;55.90;41.47;;;;;;;;;;5052652;28;20045;-75
2022/01/09 04:35:28;;;;;;;53.35;39.67;;;;;;;;;;5034426;28;20497;-75
2022/01/09 04:37:56;;;;;;;53.80;41.60;;;;;;;;;;5053866;28;20080;-75
2022/01/09 04:40:23;;;;;;;50.88;40.40;;;;;;;;;;5067579;28;20039;-76
2022/01/09 04:42:57;;;;;;;44.67;39.38;;;;;;;;;;5045587;28;20059;-75
2022/01/09 04:45:26;;;;;;;56.25;41.38;;;;;;;;;;5063192;28;20053;-76
2022/01/09 04:47:55;;;;;;;44.92;37.78;;;;;;;;;;5062241;28;20051;-75
2022/01/09 04:50:28;;;;;;;51.15;38.58;;;;;;;;;;5052864;28;20045;-75
2022/01/09 04:53:04;;;;;;;49.67;37.17;;;;;;;;;;5052804;28;20044;-75
2022/01/09 04:55:37;;;;;;;54.60;40.42;;;;;;;;;;5049702;28;20533;-77
2022/01/09 04:58:04;;;;;;;47.55;39.42;;;;;;;;;;5071691;28;20060;-78
2022/01/09 05:00:31;;;;;;;44.55;36.65;;;;;;;;;;5054125;28;20127;-77
2022/01/09 05:02:58;;;;;;;53.50;40.10;;;;;;;;;;5054874;28;20059;-76
2022/01/09 05:05:26;;;;;;;50.75;38.53;;;;;;;;;;5054532;28;20051;-76
2022/01/09 05:07:53;;;;;;;50.63;39.20;;;;;;;;;;5053608;28;20037;-75
2022/01/09 05:10:20;;;;;;;52.80;39.88;;;;;;;;;;5052245;28;20046;-76
2022/01/09 05:12:47;;;;;;;56.10;40.85;;;;;;;;;;5060946;28;20412;-77
2022/01/09 05:15:15;;;;;;;54.65;39.50;;;;;;;;;;5041588;28;20065;-76
2022/01/09 05:17:43;;;;;;;56.80;43.80;;;;;;;;;;5065622;28;20087;-75
2022/01/09 05:20:11;;;;;;;57.05;41.40;;;;;;;;;;5040263;28;20049;-75
2022/01/09 05:22:38;;;;;;;57.85;43.33;;;;;;;;;;5049500;28;20033;-75
2022/01/09 05:25:06;;;;;;;54.55;41.67;;;;;;;;;;5065722;28;20060;-75
2022/01/09 05:27:35;;;;;;;54.95;44.03;;;;;;;;;;5032941;28;20045;-75
2022/01/09 05:30:04;;;;;;;58.33;41.53;;;;;;;;;;5057437;28;20049;-76
2022/01/09 05:32:31;;;;;;;59.67;42.78;;;;;;;;;;5050544;28;20576;-75
2022/01/09 05:34:58;;;;;;;56.47;45.65;;;;;;;;;;5065351;28;20497;-75
2022/01/09 05:37:25;;;;;;;59.25;46.80;;;;;;;;;;5036252;28;20056;-75
2022/01/09 05:39:52;;;;;;;51.22;42.42;;;;;;;;;;5065727;28;20048;-76
2022/01/09 05:42:19;;;;;;;60.90;40.65;;;;;;;;;;5045990;28;20041;-75
2022/01/09 05:44:47;;;;;;;55.72;42.38;;;;;;;;;;5067263;28;20068;-75
2022/01/09 05:47:15;;;;;;;49.28;40.22;;;;;;;;;;5050275;28;20132;-75
2022/01/09 05:49:42;;;;;;;52.88;42.40;;;;;;;;;;5060300;28;20033;-76
2022/01/09 05:52:09;;;;;;;59.13;42.67;;;;;;;;;;5051002;28;20052;-75
2022/01/09 05:54:36;;;;;;;49.20;39.20;;;;;;;;;;5059009;28;20102;-77
2022/01/09 05:57:03;;;;;;;52.70;40.67;;;;;;;;;;5048029;28;20385;-76
2022/01/09 05:59:30;;;;;;;55.95;42.67;;;;;;;;;;5050042;28;20097;-75
2022/01/09 06:01:58;;;;;;;56.00;43.75;;;;;;;;;;5050370;28;20040;-76
2022/01/09 06:04:25;;;;;;;58.90;43.10;;;;;;;;;;5043117;28;20063;-75
2022/01/09 06:06:54;;;;;;;51.33;38.45;;;;;;;;;;5050368;28;20264;-75
2022/01/09 06:09:22;;;;;;;52.13;40.67;;;;;;;;;;5067609;28;20488;-74
2022/01/09 06:11:49;;;;;;;51.28;39.63;;;;;;;;;;5050183;28;20044;-75
2022/01/09 06:14:16;;;;;;;53.10;42.33;;;;;;;;;;5063473;28;20382;-75
2022/01/09 06:16:43;;;;;;;43.33;36.88;;;;;;;;;;5047226;28;20032;-75
2022/01/09 06:19:11;;;;;;;49.15;38.45;;;;;;;;;;5064218;28;20106;-75
2022/01/09 06:21:38;;;;;;;48.42;39.05;;;;;;;;;;5049273;28;20124;-74
2022/01/09 06:24:05;;;;;;;44.40;38.97;;;;;;;;;;5047015;28;20052;-75
2022/01/09 06:26:32;;;;;;;46.75;40.35;;;;;;;;;;5060196;28;20140;-75
2022/01/09 06:28:59;;;;;;;52.38;39.67;;;;;;;;;;5044494;28;20401;-73
2022/01/09 06:31:26;;;;;;;47.70;37.95;;;;;;;;;;5057160;28;20493;-74
2022/01/09 06:33:53;;;;;;;54.20;40.53;;;;;;;;;;5046805;28;20508;-74
2022/01/09 06:36:20;;;;;;;48.33;40.60;;;;;;;;;;5062118;28;20045;-75
2022/01/09 06:38:47;;;;;;;49.22;40.80;;;;;;;;;;5047009;28;20053;-74
2022/01/09 06:41:14;;;;;;;54.38;42.78;;;;;;;;;;5045743;28;20044;-75
2022/01/09 06:43:41;;;;;;;47.40;39.72;;;;;;;;;;5075772;28;20489;-74
2022/01/09 06:46:08;;;;;;;48.20;38.60;;;;;;;;;;5057776;28;20061;-75
2022/01/09 06:48:35;;;;;;;48.70;41.42;;;;;;;;;;5036580;28;20041;-74
2022/01/09 06:51:02;;;;;;;43.35;37.25;;;;;;;;;;5053678;28;20083;-75
2022/01/09 06:53:29;;;;;;;42.58;35.83;;;;;;;;;;5054352;28;20064;-72
2022/01/09 06:55:56;;;;;;;40.75;36.42;;;;;;;;;;5036275;28;20048;-74
2022/01/09 06:58:23;;;;;;;46.90;38.30;;;;;;;;;;5020168;28;20048;-75
2022/01/09 07:00:51;;;;;;;41.03;36.47;;;;;;;;;;5054738;28;20449;-75
2022/01/09 07:03:18;;;;;;;41.50;36.13;;;;;;;;;;5053907;28;20041;-74
2022/01/09 07:05:45;;;;;;;43.58;37.85;;;;;;;;;;5061459;28;20451;-74
2022/01/09 07:08:12;;;;;;;44.10;38.50;;;;;;;;;;5048053;28;20049;-79
2022/01/09 07:10:39;;;;;;;47.80;39.60;;;;;;;;;;5056833;28;20129;-78
2022/01/09 07:13:06;;;;;;;47.20;38.00;;;;;;;;;;5041842;28;20056;-79
2022/01/09 07:15:33;;;;;;;48.40;39.08;;;;;;;;;;5048589;28;20094;-79
2022/01/09 07:18:00;;;;;;;50.38;40.75;;;;;;;;;;5070218;28;20134;-78
2022/01/09 07:20:33;;;;;;;81.60;55.80;;;;;;;;;;5037384;28;20056;-76
2022/01/09 07:23:00;;;;;;;156.52;92.45;;;;;;;;;;5052919;28;20037;-79
2022/01/09 07:25:27;;;;;;;155.57;98.10;;;;;;;;;;5080457;28;20052;-80
2022/01/09 07:27:54;;;;;;;361.38;186.07;;;;;;;;;;5079005;28;20056;-84
2022/01/09 07:30:21;;;;;;;233.23;126.72;;;;;;;;;;5062719;28;20064;-80
2022/01/09 07:32:48;;;;;;;81.38;55.72;;;;;;;;;;5084407;28;20051;-81
2022/01/09 07:35:15;;;;;;;52.92;42.97;;;;;;;;;;5104056;28;20091;-79
2022/01/09 07:37:42;;;;;;;192.18;97.45;;;;;;;;;;5075262;28;20052;-80
2022/01/09 07:40:10;;;;;;;65.03;44.20;;;;;;;;;;5084798;28;20504;-80
2022/01/09 07:42:37;;;;;;;47.70;40.97;;;;;;;;;;5047650;28;20522;-79
2022/01/09 07:45:07;;;;;;;48.90;38.58;;;;;;;;;;5084213;28;20071;-79
2022/01/09 07:47:36;;;;;;;47.80;37.63;;;;;;;;;;5083185;28;20048;-82
2022/01/09 07:50:04;;;;;;;48.72;41.33;;;;;;;;;;5103875;28;20063;-80
2022/01/09 07:52:35;;;;;;;47.10;36.22;;;;;;;;;;5097030;28;20159;-80
2022/01/09 07:55:04;;;;;;;48.47;38.45;;;;;;;;;;5107586;28;20138;-77
2022/01/09 07:57:32;;;;;;;48.65;37.03;;;;;;;;;;5067198;28;20040;-78
2022/01/09 08:00:02;;;;;;;58.72;43.33;;;;;;;;;;5074646;28;20048;-79
2022/01/09 08:02:39;;;;;;;110.38;62.80;;;;;;;;;;5093815;28;20072;-78
2022/01/09 08:05:07;;;;;;;94.32;55.78;;;;;;;;;;5069335;28;20040;-76
2022/01/09 08:07:34;;;;;;;59.65;41.40;;;;;;;;;;5089528;28;20041;-75
2022/01/09 08:10:01;;;;;;;48.05;40.53;;;;;;;;;;5101054;28;20070;-78
2022/01/09 08:12:31;;;;;;;45.03;36.08;;;;;;;;;;5064683;28;20052;-79
2022/01/09 08:14:58;;;;;;;50.63;36.58;;;;;;;;;;5091174;28;20127;-77
2022/01/09 08:17:25;;;;;;;39.75;33.97;;;;;;;;;;5090375;28;20063;-78
2022/01/09 08:19:53;;;;;;;41.50;31.92;;;;;;;;;;5074534;28;20497;-79
2022/01/09 08:22:20;;;;;;;44.20;33.15;;;;;;;;;;5066324;28;20044;-77
2022/01/09 08:24:49;;;;;;;39.42;32.90;;;;;;;;;;5070760;28;20086;-77
2022/01/09 08:27:16;;;;;;;38.78;29.60;;;;;;;;;;5051090;28;20044;-78
2022/01/09 08:29:43;;;;;;;32.75;27.55;;;;;;;;;;5079509;28;20056;-78
2022/01/09 08:32:13;;;;;;;33.38;29.48;;;;;;;;;;5085729;28;20056;-80
2022/01/09 08:34:40;;;;;;;36.05;28.45;;;;;;;;;;5085903;28;20063;-79
2022/01/09 08:37:11;;;;;;;32.28;27.77;;;;;;;;;;5083029;28;20056;-77
2022/01/09 08:39:40;;;;;;;34.58;26.73;;;;;;;;;;5101837;28;20161;-75
2022/01/09 08:42:08;;;;;;;32.22;27.58;;;;;;;;;;5046831;28;20053;-76
2022/01/09 08:44:36;;;;;;;31.60;26.95;;;;;;;;;;5054069;28;20075;-77
2022/01/09 08:47:05;;;;;;;32.53;28.77;;;;;;;;;;5059558;28;20075;-77
2022/01/09 08:49:32;;;;;;;38.38;31.70;;;;;;;;;;5075064;28;20047;-77
2022/01/09 08:51:59;;;;;;;40.30;32.05;;;;;;;;;;5092599;28;20043;-76
2022/01/09 08:54:26;;;;;;;37.58;33.35;;;;;;;;;;5075680;28;20115;-79
2022/01/09 08:56:54;;;;;;;40.03;33.88;;;;;;;;;;5058673;28;20048;-75
2022/01/09 08:59:21;;;;;;;42.83;34.35;;;;;;;;;;5074634;28;20071;-75
2022/01/09 09:01:48;;;;;;;40.10;33.67;;;;;;;;;;5074959;28;20438;-75
2022/01/09 09:04:16;;;;;;;44.08;33.28;;;;;;;;;;5074925;28;20054;-78
2022/01/09 09:06:43;;;;;;;43.72;34.53;;;;;;;;;;5051530;28;20053;-76
2022/01/09 09:09:11;;;;;;;41.00;34.20;;;;;;;;;;5052314;28;20517;-81
2022/01/09 09:11:39;;;;;;;40.92;33.95;;;;;;;;;;5050459;28;20123;-77
2022/01/09 09:14:06;;;;;;;38.53;32.28;;;;;;;;;;5057698;28;20059;-77
2022/01/09 09:16:33;;;;;;;45.00;35.47;;;;;;;;;;5051510;28;20095;-74
2022/01/09 09:19:00;;;;;;;64.00;37.17;;;;;;;;;;5034269;28;20416;-78
2022/01/09 09:21:28;;;;;;;41.45;32.00;;;;;;;;;;5033794;28;20460;-77
2022/01/09 09:23:55;;;;;;;38.15;33.35;;;;;;;;;;5045597;28;20049;-77
2022/01/09 09:26:22;;;;;;;40.47;34.17;;;;;;;;;;5033994;28;20048;-77
2022/01/09 09:28:50;;;;;;;42.80;34.60;;;;;;;;;;5034295;28;20055;-76
2022/01/09 09:31:17;;;;;;;38.85;33.28;;;;;;;;;;5021627;28;20067;-77
2022/01/09 09:33:46;;;;;;;43.72;36.75;;;;;;;;;;5007996;28;20041;-81
2022/01/09 09:36:13;;;;;;;40.00;35.20;;;;;;;;;;5038242;28;20072;-80
2022/01/09 09:38:41;;;;;;;43.50;35.75;;;;;;;;;;5047650;28;20049;-81
2022/01/09 09:41:08;;;;;;;45.33;38.15;;;;;;;;;;5047635;28;20056;-79
2022/01/09 09:43:35;;;;;;;47.33;37.00;;;;;;;;;;5054729;28;20040;-80
2022/01/09 09:46:03;;;;;;;42.30;37.08;;;;;;;;;;5050982;28;20044;-79
2022/01/09 09:48:30;;;;;;;40.58;36.30;;;;;;;;;;5046518;28;20113;-80
2022/01/09 09:50:57;;;;;;;41.97;37.53;;;;;;;;;;5040491;28;20079;-79
2022/01/09 09:53:24;;;;;;;41.58;35.70;;;;;;;;;;5047353;28;20049;-79
2022/01/09 09:55:53;;;;;;;42.47;37.42;;;;;;;;;;5046628;28;20066;-80
2022/01/09 09:58:22;;;;;;;40.65;36.10;;;;;;;;;;5054942;28;20087;-79
2022/01/09 10:00:57;;;;;;;40.00;35.55;;;;;;;;;;5024594;28;20135;-79
2022/01/09 10:03:32;;;;;;;39.53;35.25;;;;;;;;;;5043010;28;20045;-80
2022/01/09 10:06:00;;;;;;;40.90;35.53;;;;;;;;;;5051255;28;20080;-80
2022/01/09 10:08:39;;;;;;;39.40;35.05;;;;;;;;;;5038493;28;20041;-80
2022/01/09 10:11:15;;;;;;;45.28;36.05;;;;;;;;;;5050527;28;20113;-83
2022/01/09 10:13:42;;;;;;;40.22;35.83;;;;;;;;;;5041617;28;20128;-81
2022/01/09 10:16:10;;;;;;;42.97;36.45;;;;;;;;;;5070876;28;20068;-84
2022/01/09 10:18:47;;;;;;;40.97;33.25;;;;;;;;;;5040891;28;20048;-85
2022/01/09 10:21:16;;;;;;;38.88;33.60;;;;;;;;;;5056991;28;20055;-79
2022/01/09 10:24:00;;;;;;;40.58;33.78;;;;;;;;;;5049628;28;20057;-82
2022/01/09 10:26:29;;;;;;;40.73;33.83;;;;;;;;;;5067470;28;20057;-80
2022/01/09 10:28:56;;;;;;;44.55;36.28;;;;;;;;;;5057058;28;20832;-81
2022/01/09 10:31:24;;;;;;;42.83;35.80;;;;;;;;;;5072371;28;20086;-79
2022/01/09 10:34:06;;;;;;;46.50;34.60;;;;;;;;;;5103036;28;20052;-81
2022/01/09 10:36:48;;;;;;;39.28;32.67;;;;;;;;;;5068604;28;20056;-83
2022/01/09 10:39:19;;;;;;;40.45;34.80;;;;;;;;;;5089287;28;20051;-80
2022/01/09 10:41:58;;;;;;;39.20;33.65;;;;;;;;;;5096288;28;20048;-81
2022/01/09 10:44:37;;;;;;;44.22;37.55;;;;;;;;;;5089421;28;20130;-80
2022/01/09 10:47:14;;;;;;;38.33;34.25;;;;;;;;;;5088306;28;20062;-80
2022/01/09 10:49:43;;;;;;;49.53;37.33;;;;;;;;;;5075709;28;20071;-80
2022/01/09 10:52:26;;;;;;;43.20;33.83;;;;;;;;;;5080836;28;20044;-81
2022/01/09 10:54:55;;;;;;;43.42;37.03;;;;;;;;;;5072873;28;20109;-82
2022/01/09 10:57:30;;;;;;;51.00;41.25;;;;;;;;;;5066645;28;20082;-81
2022/01/09 11:00:17;;;;;;;;;;;;;;;;;;5093052;28;20075;-81
2022/01/09 11:02:45;;;;;;;45.30;35.97;;;;;;;;;;5087445;28;19927;-77
2022/01/09 11:05:12;;;;;;;38.40;33.75;;;;;;;;;;5082575;28;20154;-78
2022/01/09 11:07:45;;;;;;;36.40;31.70;;;;;;;;;;5099989;28;20040;-78
2022/01/09 11:10:13;;;;;;;36.97;32.42;;;;;;;;;;5073298;28;20063;-78
2022/01/09 11:12:48;;;;;;;38.85;30.75;;;;;;;;;;5075990;28;20078;-78
2022/01/09 11:15:19;;;;;;;45.38;33.20;;;;;;;;;;5050765;28;20114;-77
2022/01/09 11:17:47;;;;;;;38.60;32.45;;;;;;;;;;5061219;28;20044;-74
2022/01/09 11:20:14;;;;;;;42.88;34.80;;;;;;;;;;5056216;28;20147;-71
2022/01/09 11:22:43;;;;;;;41.25;33.22;;;;;;;;;;5060902;28;20051;-75
2022/01/09 11:25:18;;;;;;;39.65;31.65;;;;;;;;;;5051752;28;20455;-72
2022/01/09 11:27:51;;;;;;;43.90;36.00;;;;;;;;;;5070038;28;20460;-75
2022/01/09 11:30:43;;;;;;;46.55;39.00;;;;;;;;;;5068949;28;20071;-77
2022/01/09 11:33:14;;;;;;;43.05;37.67;;;;;;;;;;5073455;28;20049;-76
2022/01/09 11:36:11;;;;;;;55.00;46.42;;;;;;;;;;5075841;28;20490;-72
2022/01/09 11:38:45;;;;;;;40.05;33.38;;;;;;;;;;5055120;28;20049;-72
2022/01/09 11:41:13;;;;;;;;;;;;;;;;;;5073048;28;20048;-73
2022/01/09 11:43:59;;;;;;;38.22;31.52;;;;;;;;;;5073066;28;19947;-73
2022/01/09 11:46:28;;;;;;;37.08;28.20;;;;;;;;;;5072502;28;20549;-74
2022/01/09 11:48:55;;;;;;;33.13;29.58;;;;;;;;;;5071301;28;20106;-74
2022/01/09 11:51:25;;;;;;;41.33;32.17;;;;;;;;;;5072880;28;20055;-75
2022/01/09 11:54:06;;;;;;;35.65;30.40;;;;;;;;;;5052736;28;20052;-75
2022/01/09 11:56:56;;;;;;;37.85;32.00;;;;;;;;;;5052472;28;20496;-76
2022/01/09 11:59:38;;;;;;;38.60;32.28;;;;;;;;;;5072019;28;20055;-74
2022/01/09 12:02:12;;;;;;;40.42;35.08;;;;;;;;;;5071985;28;20459;-74
2022/01/09 12:04:45;;;;;;;45.70;39.13;;;;;;;;;;5072521;28;20049;-74
2022/01/09 12:07:15;;;;;;;42.92;34.97;;;;;;;;;;5072009;28;20557;-76
2022/01/09 12:09:50;;;;;;;40.45;34.53;;;;;;;;;;5050815;28;20045;-76
2022/01/09 12:12:22;;;;;;;39.88;35.55;;;;;;;;;;5061620;28;20397;-75
2022/01/09 12:14:54;;;;;;;42.25;35.45;;;;;;;;;;5034738;28;20497;-75
2022/01/09 12:17:27;;;;;;;41.75;34.22;;;;;;;;;;5035537;28;20051;-76
2022/01/09 12:20:08;;;;;;;38.25;32.35;;;;;;;;;;5052595;28;20073;-76
2022/01/09 12:22:42;;;;;;;39.40;32.97;;;;;;;;;;5035497;28;20048;-75
2022/01/09 12:25:24;;;;;;;40.47;33.08;;;;;;;;;;5052052;28;20053;-75
2022/01/09 12:27:57;;;;;;;40.58;32.13;;;;;;;;;;5051929;28;20037;-76
2022/01/09 12:30:33;;;;;;;47.35;29.92;;;;;;;;;;5042348;28;20463;-72
2022/01/09 12:33:09;;;;;;;38.28;31.83;;;;;;;;;;5069190;28;20076;-74
2022/01/09 12:35:59;;;;;;;36.42;30.80;;;;;;;;;;5054459;28;20060;-75
2022/01/09 12:38:31;;;;;;;39.63;32.55;;;;;;;;;;5054322;28;20123;-72
2022/01/09 12:41:05;;;;;;;42.25;33.70;;;;;;;;;;5069503;28;20059;-76
2022/01/09 12:43:34;;;;;;;44.33;34.77;;;;;;;;;;5070645;28;20051;-74
2022/01/09 12:46:13;;;;;;;40.35;33.53;;;;;;;;;;5064343;28;20340;-73
2022/01/09 12:48:40;;;;;;;40.60;33.42;;;;;;;;;;5062639;28;20131;-72
2022/01/09 12:51:14;;;;;;;40.75;34.40;;;;;;;;;;5051083;28;20076;-73
2022/01/09 12:53:50;;;;;;;44.15;35.47;;;;;;;;;;5051739;28;20114;-75
2022/01/09 12:56:22;;;;;;;39.70;34.30;;;;;;;;;;5050796;28;20493;-76
2022/01/09 12:58:56;;;;;;;40.58;35.20;;;;;;;;;;5049026;28;20083;-76
2022/01/09 13:01:25;;;;;;;42.80;35.15;;;;;;;;;;5049202;28;20056;-78
2022/01/09 13:03:57;;;;;;;41.55;29.85;;;;;;;;;;5064029;28;20132;-76
2022/01/09 13:06:27;;;;;;;38.63;30.15;;;;;;;;;;5049394;28;20155;-76
2022/01/09 13:08:57;;;;;;;35.22;28.38;;;;;;;;;;5065297;28;20380;-76
2022/01/09 13:11:44;;;;;;;37.20;28.63;;;;;;;;;;5052316;28;20099;-77
2022/01/09 13:14:29;;;;;;;30.42;25.23;;;;;;;;;;5065980;28;20044;-75
2022/01/09 13:16:58;;;;;;;30.75;26.45;;;;;;;;;;5065574;28;20451;-79
2022/01/09 13:19:25;;;;;;;33.05;27.73;;;;;;;;;;5050779;28;20098;-76
2022/01/09 13:22:11;;;;;;;30.70;25.77;;;;;;;;;;5051054;28;20049;-77
2022/01/09 13:24:38;;;;;;;31.33;25.65;;;;;;;;;;5050492;28;20068;-79
2022/01/09 13:27:08;;;;;;;34.38;26.77;;;;;;;;;;5048626;28;20115;-73
2022/01/09 13:29:39;;;;;;;31.98;28.30;;;;;;;;;;5048721;28;20051;-73
2022/01/09 13:32:07;;;;;;;35.17;29.05;;;;;;;;;;5054813;28;20102;-75
2022/01/09 13:34:43;;;;;;;37.78;28.08;;;;;;;;;;5049679;28;20229;-75
2022/01/09 13:37:16;;;;;;;33.65;28.50;;;;;;;;;;5053554;28;20534;-76
2022/01/09 13:39:48;;;;;;;33.42;27.98;;;;;;;;;;5052268;28;20261;-76
2022/01/09 13:42:24;;;;;;;35.83;30.33;;;;;;;;;;5033323;28;20044;-77
2022/01/09 13:45:13;;;;;;;36.47;30.13;;;;;;;;;;5050727;28;20059;-75
2022/01/09 13:47:45;;;;;;;33.47;29.70;;;;;;;;;;5034890;28;20053;-74
2022/01/09 13:50:19;;;;;;;36.15;31.63;;;;;;;;;;5032394;28;20052;-73
2022/01/09 13:52:47;;;;;;;32.65;28.98;;;;;;;;;;5032123;28;20493;-74
2022/01/09 13:55:19;;;;;;;36.90;30.05;;;;;;;;;;5033918;28;20081;-74
2022/01/09 13:57:58;;;;;;;35.45;31.33;;;;;;;;;;5035470;28;20053;-74
2022/01/09 14:00:27;;;;;;;34.63;28.63;;;;;;;;;;5017748;28;20052;-74
2022/01/09 14:02:57;;;;;;;35.55;27.90;;;;;;;;;;5015270;28;20068;-73
2022/01/09 14:05:47;;;;;;;37.88;29.75;;;;;;;;;;5053191;28;20055;-73
2022/01/09 14:08:21;;;;;;;42.57;33.73;;;;;;;;;;5051128;28;20128;-74
2022/01/09 14:10:50;;;;;;;38.85;30.92;;;;;;;;;;5052367;28;20381;-73
2022/01/09 14:13:23;;;;;;;42.13;31.77;;;;;;;;;;5052367;28;20044;-74
2022/01/09 14:15:52;;;;;;;35.50;30.88;;;;;;;;;;5047190;28;20049;-74
2022/01/09 14:18:28;;;;;;;39.30;30.33;;;;;;;;;;5051603;28;20045;-74
2022/01/09 14:21:14;;;;;;;36.08;30.13;;;;;;;;;;5053391;28;20093;-76
2022/01/09 14:23:43;;;;;;;36.58;31.20;;;;;;;;;;5021819;28;20045;-74
2022/01/09 14:26:14;;;;;;;36.55;29.90;;;;;;;;;;5038566;28;20049;-75
2022/01/09 14:28:43;;;;;;;36.53;30.75;;;;;;;;;;5017397;28;20507;-74
2022/01/09 14:31:15;;;;;;;33.17;29.55;;;;;;;;;;5023429;28;20490;-74
2022/01/09 14:33:55;;;;;;;37.72;30.67;;;;;;;;;;5014157;28;20069;-75
2022/01/09 14:36:28;;;;;;;46.70;30.77;;;;;;;;;;5013874;28;20073;-74